Time;durP1;ratioP1;P1;durP2;ratioP2;P2;SDS_P1;SDS_P2;PMS_P1;PMS_P2;Temp;Humidity;BMP_temperature;BMP_pressure;BME280_temperature;BME280_humidity;BME280_pressure;Samples;Min_cycle;Max_cycle;Signal;HPM_P1;HPM_P2
2022/11/01 00:04:51;;;;;;;9.67;4.80;;;;;;;7.23;100.00;96507.06;10493313;28;20726;-74
2022/11/01 00:09:52;;;;;;;12.63;4.77;;;;;;;7.22;100.00;96505.44;10493042;28;20227;-75
2022/11/01 00:14:52;;;;;;;12.17;5.50;;;;;;;7.97;100.00;96504.63;10492630;28;20647;-75
2022/11/01 00:19:52;;;;;;;13.47;5.20;;;;;;;9.69;100.00;96486.13;10492846;28;20642;-75
2022/11/01 00:24:53;;;;;;;17.40;5.57;;;;;;;10.82;100.00;96477.91;10492939;28;20552;-75
2022/11/01 00:29:53;;;;;;;11.03;4.90;;;;;;;11.66;100.00;96461.88;10492063;28;20557;-75
2022/11/01 00:34:54;;;;;;;9.90;4.72;;;;;;;12.57;100.00;96449.09;10489441;28;20191;-74
2022/11/01 00:39:54;;;;;;;12.63;4.50;;;;;;;12.89;100.00;96455.91;10473735;28;20211;-75
2022/11/01 00:44:54;;;;;;;12.00;5.85;;;;;;;13.49;100.00;96458.66;10491467;28;20195;-75
2022/11/01 00:49:55;;;;;;;15.20;6.72;;;;;;;13.96;100.00;96454.84;10491575;28;20249;-74
2022/11/01 00:54:55;;;;;;;14.75;6.10;;;;;;;14.24;100.00;96436.53;10490474;28;20227;-75
2022/11/01 00:59:55;;;;;;;17.10;6.60;;;;;;;14.16;100.00;96439.25;10491243;28;20240;-74
2022/11/01 01:04:56;;;;;;;18.50;6.40;;;;;;;14.33;100.00;96423.22;10491193;28;20191;-74
2022/11/01 01:09:56;;;;;;;15.55;6.68;;;;;;;14.22;100.00;96421.91;10490848;28;20211;-75
2022/11/01 01:14:57;;;;;;;15.15;7.28;;;;;;;14.09;100.00;96422.59;10543859;28;20190;-74
2022/11/01 01:19:57;;;;;;;9.57;5.80;;;;;;;14.12;100.00;96418.75;10574671;28;20649;-74
2022/11/01 01:24:57;;;;;;;15.32;6.90;;;;;;;14.04;100.00;96419.66;10574875;28;20185;-74
2022/11/01 01:29:58;;;;;;;17.45;6.70;;;;;;;13.93;100.00;96422.78;10574784;28;20225;-74
2022/11/01 01:34:58;;;;;;;15.95;6.88;;;;;;;13.95;100.00;96415.50;10573768;28;20197;-74
2022/11/01 01:39:59;;;;;;;15.02;6.72;;;;;;;13.87;100.00;96414.66;10573872;28;20674;-74
2022/11/01 01:44:59;;;;;;;12.25;6.68;;;;;;;13.58;100.00;96422.56;10574025;28;20190;-74
2022/11/01 01:50:23;;;;;;;17.10;6.63;;;;;;;13.53;100.00;96425.75;10574480;28;20304;-74
2022/11/01 01:55:28;;;;;;;12.68;5.90;;;;;;;13.90;100.00;96416.06;10573453;28;20680;-74
2022/11/01 02:00:29;;;;;;;15.98;7.22;;;;;;;13.85;100.00;96414.00;10555240;28;20638;-74
2022/11/01 02:05:39;;;;;;;15.82;8.30;;;;;;;13.79;100.00;96419.19;10578277;28;20209;-74
2022/11/01 02:10:39;;;;;;;17.48;8.52;;;;;;;13.67;100.00;96410.94;10582521;28;20178;-74
2022/11/01 02:16:07;;;;;;;15.80;7.13;;;;;;;13.55;100.00;96424.56;10581589;28;20189;-74
2022/11/01 02:21:39;;;;;;;20.30;7.47;;;;;;;13.50;100.00;96432.16;10563402;28;20197;-74
2022/11/01 02:26:53;;;;;;;16.30;7.57;;;;;;;13.35;100.00;96426.09;10581441;28;20673;-74
2022/11/01 02:32:04;;;;;;;16.92;6.93;;;;;;;13.59;100.00;96408.41;10580946;28;20657;-75
2022/11/01 02:37:17;;;;;;;14.48;7.32;;;;;;;13.71;100.00;96402.47;10562282;28;20205;-74
2022/11/01 02:42:26;;;;;;;12.52;7.35;;;;;;;13.68;100.00;96404.69;10561546;28;20761;-74
2022/11/01 02:47:29;;;;;;;13.65;6.55;;;;;;;13.68;100.00;96400.22;10562416;28;20308;-74
2022/11/01 02:52:31;;;;;;;14.75;5.90;;;;;;;13.78;100.00;96402.56;10562461;28;20253;-74
2022/11/01 02:57:39;;;;;;;19.50;7.10;;;;;;;13.82;100.00;96401.19;10561537;28;20204;-74
2022/11/01 03:02:42;;;;;;;15.55;7.00;;;;;;;13.94;100.00;96382.31;10561958;28;20198;-74
2022/11/01 03:07:46;;;;;;;13.45;6.28;;;;;;;14.12;100.00;96376.59;10560944;28;20700;-74
2022/11/01 03:12:53;;;;;;;18.98;6.57;;;;;;;14.07;100.00;96392.97;10561358;28;20202;-74
2022/11/01 03:18:04;;;;;;;15.00;6.53;;;;;;;13.97;100.00;96387.19;10562873;28;20187;-74
2022/11/01 03:23:05;;;;;;;13.30;5.95;;;;;;;14.04;99.55;96382.78;10579892;28;20190;-74
2022/11/01 03:28:22;;;;;;;17.98;5.80;;;;;;;14.03;98.94;96383.81;10579083;28;20216;-74
2022/11/01 03:33:24;;;;;;;11.45;5.22;;;;;;;14.15;97.10;96378.84;10560219;28;20197;-74
2022/11/01 03:38:26;;;;;;;14.38;5.47;;;;;;;14.13;96.58;96388.78;10560617;28;20204;-74
2022/11/01 03:43:29;;;;;;;14.45;6.63;;;;;;;14.25;95.63;96382.00;10559165;28;20194;-74
2022/11/01 03:48:29;;;;;;;19.52;5.82;;;;;;;14.37;94.23;96379.69;10560402;28;20220;-74
2022/11/01 03:53:29;;;;;;;15.48;5.45;;;;;;;14.32;94.08;96384.69;10577188;28;20237;-74
2022/11/01 03:58:45;;;;;;;14.82;5.40;;;;;;;14.12;95.66;96398.50;10577939;28;20658;-74
2022/11/01 04:03:45;;;;;;;15.57;5.35;;;;;;;13.94;96.70;96419.97;10539993;28;20647;-74
2022/11/01 04:08:46;;;;;;;12.38;6.18;;;;;;;13.40;100.00;96450.06;10486555;28;20225;-74
2022/11/01 04:13:46;;;;;;;13.68;6.32;;;;;;;13.05;100.00;96465.50;10467107;28;20199;-74
2022/11/01 04:24:19;;;;;;;16.42;5.28;;;;;;;12.65;100.00;96481.41;10462067;28;20683;-75
2022/11/01 04:29:19;;;;;;;14.52;6.25;;;;;;;12.65;100.00;96475.34;10484947;28;20691;-75
2022/11/01 04:34:41;;;;;;;12.55;6.10;;;;;;;12.62;100.00;96479.13;10485124;28;20187;-75
2022/11/01 04:39:40;;;;;;;13.35;5.47;;;;;;;12.52;100.00;96475.09;10468108;28;20203;-75
2022/11/01 04:44:41;;;;;;;12.82;5.88;;;;;;;12.47;100.00;96484.31;10484394;28;20199;-76
2022/11/01 04:49:41;;;;;;;14.80;5.07;;;;;;;12.82;100.00;96468.97;10465729;28;20230;-75
2022/11/01 04:54:41;;;;;;;12.02;5.82;;;;;;;12.77;100.00;96460.78;10482964;28;20252;-75
2022/11/01 04:59:42;;;;;;;15.75;6.13;;;;;;;12.81;100.00;96454.19;10483743;28;20190;-75
2022/11/01 05:04:42;;;;;;;11.27;5.43;;;;;;;12.74;100.00;96455.91;10490138;28;20193;-74
2022/11/01 05:09:42;;;;;;;12.73;5.82;;;;;;;12.73;100.00;96456.88;10490711;28;20728;-75
2022/11/01 05:14:43;;;;;;;12.23;5.97;;;;;;;12.80;100.00;96425.44;10472631;28;20210;-74
2022/11/01 05:19:43;;;;;;;18.90;5.57;;;;;;;12.78;100.00;96436.13;10473454;28;20203;-75
2022/11/01 05:24:44;;;;;;;16.27;5.97;;;;;;;12.80;100.00;96436.78;10490753;28;20599;-75
2022/11/01 05:29:44;;;;;;;14.85;5.75;;;;;;;12.73;100.00;96432.41;10490777;28;20222;-75
2022/11/01 05:34:45;;;;;;;15.43;5.45;;;;;;;12.98;100.00;96418.03;10490429;28;20191;-75
2022/11/01 05:39:46;;;;;;;12.50;5.45;;;;;;;12.87;100.00;96412.41;10494541;28;20256;-75
2022/11/01 05:44:46;;;;;;;14.60;5.38;;;;;;;12.82;99.76;96424.28;10499155;28;20530;-75
2022/11/01 05:49:46;;;;;;;10.93;4.75;;;;;;;12.74;100.00;96431.41;10498682;28;20223;-75
2022/11/01 05:54:47;;;;;;;14.25;5.07;;;;;;;12.76;99.45;96437.31;10497303;28;20231;-74
2022/11/01 05:59:47;;;;;;;13.57;4.78;;;;;;;12.84;98.05;96439.88;10499052;28;20266;-75
2022/11/01 06:04:48;;;;;;;17.65;5.35;;;;;;;12.88;97.21;96438.53;10498223;28;20192;-75
2022/11/01 06:09:48;;;;;;;13.98;5.00;;;;;;;12.98;95.22;96436.44;10514577;28;20716;-74
2022/11/01 06:14:48;;;;;;;12.85;4.75;;;;;;;13.01;94.76;96437.91;10582250;28;20196;-74
2022/11/01 06:19:49;;;;;;;8.55;4.30;;;;;;;13.06;93.64;96451.31;10580436;28;20188;-75
2022/11/01 06:24:49;;;;;;;10.68;4.38;;;;;;;13.09;93.17;96450.97;10563052;28;20271;-75
2022/11/01 06:29:49;;;;;;;10.15;4.75;;;;;;;13.11;92.61;96462.16;10581843;28;20221;-75
2022/11/01 06:34:50;;;;;;;10.60;4.47;;;;;;;13.47;89.72;96448.31;10580653;28;20716;-74
2022/11/01 06:39:50;;;;;;;8.00;3.70;;;;;;;13.49;89.09;96451.63;10581160;28;20213;-75
2022/11/01 06:44:50;;;;;;;15.35;4.60;;;;;;;13.62;88.03;96455.41;10580494;28;20182;-74
2022/11/01 06:49:51;;;;;;;11.75;4.45;;;;;;;13.60;87.79;96460.88;10516706;28;20269;-74
2022/11/01 06:54:51;;;;;;;11.75;4.18;;;;;;;13.64;87.25;96477.09;10524891;28;20592;-75
2022/11/01 06:59:52;;;;;;;11.75;4.88;;;;;;;13.61;88.11;96501.16;10537880;28;20280;-75
2022/11/01 07:04:52;;;;;;;11.27;3.90;;;;;;;13.94;86.68;96511.34;10534262;28;20727;-75
2022/11/01 07:09:52;;;;;;;8.90;3.95;;;;;;;14.20;85.75;96498.50;10518389;28;20575;-75
2022/11/01 07:14:53;;;;;;;14.00;4.03;;;;;;;14.60;83.21;96483.13;10537202;28;20607;-75
2022/11/01 07:19:53;;;;;;;8.90;3.95;;;;;;;14.86;82.16;96481.75;10536635;28;20205;-76
2022/11/01 07:24:53;;;;;;;9.57;3.30;;;;;;;15.02;82.07;96495.69;10536927;28;20193;-74
2022/11/01 07:29:54;;;;;;;12.60;4.18;;;;;;;15.33;81.45;96498.00;10516528;28;20268;-75
2022/11/01 07:34:54;;;;;;;12.05;3.83;;;;;;;15.67;81.44;96517.50;10527559;28;20194;-75
2022/11/01 07:39:55;;;;;;;10.70;4.28;;;;;;;16.23;78.35;96487.53;10536495;28;20210;-75
2022/11/01 07:44:55;;;;;;;12.80;3.78;;;;;;;16.66;76.24;96483.78;10535769;28;20194;-75
2022/11/01 07:49:55;;;;;;;10.23;3.97;;;;;;;16.68;76.06;96485.22;10535636;28;20229;-75
2022/11/01 07:54:56;;;;;;;16.65;3.92;;;;;;;16.48;77.41;96506.34;10542609;28;20261;-75
2022/11/01 07:59:56;;;;;;;13.02;4.03;;;;;;;16.43;76.25;96492.06;10561283;28;20186;-75
2022/11/01 08:04:57;;;;;;;11.85;4.40;;;;;;;16.49;77.27;96507.97;10527940;28;20566;-75
2022/11/01 08:09:57;;;;;;;12.45;3.78;;;;;;;16.86;75.69;96491.75;10537290;28;20210;-75
2022/11/01 08:14:57;;;;;;;12.13;3.70;;;;;;;17.07;75.31;96496.88;10540532;28;20195;-75
2022/11/01 08:19:58;;;;;;;12.60;4.03;;;;;;;17.46;73.89;96479.38;10541987;28;20186;-74
2022/11/01 08:24:58;;;;;;;10.57;3.67;;;;;;;17.71;73.11;96484.00;10574347;28;20197;-74
2022/11/01 08:29:58;;;;;;;9.13;3.80;;;;;;;17.34;75.16;96525.22;10574810;28;20209;-75
2022/11/01 08:34:59;;;;;;;12.43;4.80;;;;;;;17.75;72.73;96492.34;10575029;28;20273;-75
2022/11/01 08:39:59;;;;;;;8.15;3.70;;;;;;;17.75;73.48;96532.94;10526323;28;20207;-75
2022/11/01 08:45:00;;;;;;;12.60;3.58;;;;;;;18.00;73.13;96540.25;10510818;28;21093;-75
2022/11/01 08:50:00;;;;;;;17.42;3.83;;;;;;;18.56;71.45;96527.41;10521943;28;20567;-74
2022/11/01 08:55:01;;;;;;;10.35;3.60;;;;;;;18.71;70.48;96530.56;10507820;28;20502;-75
2022/11/01 09:00:03;;;;;;;10.35;3.33;;;;;;;18.68;71.80;96558.38;10507712;28;20278;-75
2022/11/01 09:05:05;;;;;;;10.15;3.55;;;;;;;18.66;70.71;96541.84;10507844;28;20191;-75
2022/11/01 09:10:07;;;;;;;12.60;3.95;;;;;;;18.56;72.17;96577.81;10479756;28;20215;-75
2022/11/01 09:15:07;;;;;;;16.63;3.88;;;;;;;18.70;71.90;96560.81;10556914;28;20640;-75
2022/11/01 09:20:08;;;;;;;12.38;3.72;;;;;;;18.15;73.49;96585.88;10573702;28;20186;-75
2022/11/01 09:25:09;;;;;;;8.13;3.33;;;;;;;18.82;72.23;96572.38;10572223;28;20201;-75
2022/11/01 09:30:10;;;;;;;6.32;2.88;;;;;;;19.32;69.18;96539.81;10572513;28;20232;-75
2022/11/01 09:35:10;;;;;;;8.50;3.15;;;;;;;19.27;69.61;96544.16;10572940;28;20692;-75
2022/11/01 09:40:13;;;;;;;8.23;2.88;;;;;;;20.64;66.74;96527.22;10571904;28;20205;-75
2022/11/01 09:45:19;;;;;;;7.13;2.53;;;;;;;19.28;69.20;96553.75;10553577;28;20186;-75
2022/11/01 09:50:26;;;;;;;7.53;2.60;;;;;;;18.64;71.69;96588.19;10554709;28;20694;-75
2022/11/01 09:55:47;;;;;;;6.97;2.67;;;;;;;18.58;72.35;96597.81;10571881;28;20190;-75
2022/11/01 10:00:57;;;;;;;6.45;2.72;;;;;;;17.69;74.81;96613.25;10572360;28;20661;-75
2022/11/01 10:06:00;;;;;;;4.93;2.60;;;;;;;17.89;75.21;96628.34;10553413;28;20221;-75
2022/11/01 10:11:13;;;;;;;5.82;2.75;;;;;;;17.81;74.81;96616.09;10572926;28;20198;-75
2022/11/01 10:16:40;;;;;;;5.95;3.10;;;;;;;17.80;75.36;96620.56;10532025;28;20301;-75
2022/11/01 10:21:45;;;;;;;6.20;2.67;;;;;;;17.82;76.42;96644.22;10528021;28;20197;-75
2022/11/01 10:26:47;;;;;;;6.22;2.75;;;;;;;17.61;76.82;96646.06;10516773;28;20210;-75
2022/11/01 10:31:50;;;;;;;7.13;3.00;;;;;;;17.49;77.34;96666.22;10537115;28;20214;-75
2022/11/01 10:37:13;;;;;;;10.52;2.80;;;;;;;17.26;78.43;96682.47;10516451;28;20568;-75
2022/11/01 10:42:16;;;;;;;5.63;2.47;;;;;;;17.22;78.58;96678.56;10518858;28;20193;-76
2022/11/01 10:47:18;;;;;;;9.02;3.05;;;;;;;16.99;81.42;96695.59;10517753;28;20217;-75
2022/11/01 10:52:23;;;;;;;7.30;2.80;;;;;;;16.86;82.74;96696.34;10459666;28;20325;-75
2022/11/01 10:57:27;;;;;;;6.80;2.70;;;;;;;16.90;83.67;96696.78;10476093;28;20287;-76
2022/11/01 11:02:33;;;;;;;7.55;2.50;;;;;;;16.67;84.74;96705.78;10477878;28;20655;-76
2022/11/01 11:07:34;;;;;;;9.68;3.05;;;;;;;16.62;84.82;96687.03;10477366;28;20219;-75
2022/11/01 11:12:34;;;;;;;7.10;3.30;;;;;;;16.46;84.45;96677.59;10477435;28;20190;-75
2022/11/01 11:17:38;;;;;;;9.00;3.83;;;;;;;16.66;85.47;96684.81;10478059;28;20192;-76
2022/11/01 11:22:40;;;;;;;7.90;3.28;;;;;;;16.73;85.78;96667.97;10505456;28;20291;-76
2022/11/01 11:27:55;;;;;;;7.05;2.90;;;;;;;16.73;85.28;96667.16;10518554;28;20214;-75
2022/11/01 11:32:57;;;;;;;6.10;2.92;;;;;;;16.64;85.91;96661.19;10502779;28;20187;-75
2022/11/01 11:38:00;;;;;;;7.07;2.90;;;;;;;16.79;85.67;96679.59;10517503;28;20202;-76
2022/11/01 11:43:30;;;;;;;8.25;2.80;;;;;;;16.88;85.90;96693.50;10535976;28;20297;-76
2022/11/01 11:48:31;;;;;;;7.47;2.95;;;;;;;16.81;85.90;96706.66;10536175;28;20256;-77
2022/11/01 11:53:32;;;;;;;12.27;3.30;;;;;;;16.99;85.87;96703.53;10483477;28;20233;-76
2022/11/01 11:58:41;;;;;;;4.85;2.70;;;;;;;17.05;84.84;96705.38;10511312;28;20185;-75
2022/11/01 12:03:47;;;;;;;7.60;2.28;;;;;;;17.05;83.22;96686.84;10508764;28;20191;-75
2022/11/01 12:08:48;;;;;;;5.30;2.83;;;;;;;17.17;82.97;96691.59;10481698;28;20211;-75
2022/11/01 12:14:00;;;;;;;4.28;2.30;;;;;;;17.47;82.17;96682.28;10511148;28;20188;-76
2022/11/01 12:19:02;;;;;;;5.35;1.90;;;;;;;17.17;81.98;96696.88;10480934;28;20805;-75
2022/11/01 12:24:17;;;;;;;3.30;1.90;;;;;;;16.96;83.34;96692.53;10502528;28;20201;-75
2022/11/01 12:29:27;;;;;;;5.13;2.25;;;;;;;16.60;85.01;96718.16;10514341;28;20351;-75
2022/11/01 12:34:31;;;;;;;5.38;2.00;;;;;;;16.91;83.08;96695.75;10505458;28;20179;-75
2022/11/01 12:39:40;;;;;;;4.85;2.00;;;;;;;17.56;81.12;96692.69;10489650;28;20587;-75
2022/11/01 12:44:45;;;;;;;3.25;1.50;;;;;;;17.50;81.32;96691.66;10510001;28;20222;-75
2022/11/01 12:49:55;;;;;;;5.05;2.45;;;;;;;16.90;82.65;96694.13;10478428;28;20280;-75
2022/11/01 12:55:05;;;;;;;3.30;2.00;;;;;;;16.94;83.47;96698.81;10490777;28;20246;-76
2022/11/01 13:00:06;;;;;;;3.05;1.90;;;;;;;16.79;83.22;96705.25;10515161;28;20198;-75
2022/11/01 13:05:15;;;;;;;5.93;2.05;;;;;;;16.51;83.73;96719.34;10520887;28;20588;-80
2022/11/01 13:10:42;;;;;;;2.95;1.95;;;;;;;16.74;83.38;96727.81;10485032;28;20219;-80
2022/11/01 13:15:54;;;;;;;6.47;1.95;;;;;;;16.76;83.99;96730.25;10489433;28;20666;-78
2022/11/01 13:21:04;;;;;;;5.55;2.47;;;;;;;16.27;85.57;96737.25;10494055;28;20244;-79
2022/11/01 13:26:38;;;;;;;6.95;2.47;;;;;;;16.37;85.34;96747.47;10503660;28;20219;-74
2022/11/01 13:38:42;;;;;;;5.88;2.40;;;;;;;16.25;85.42;96770.16;10499530;28;20211;-76
2022/11/01 13:43:47;;;;;;;3.60;2.28;;;;;;;16.02;86.26;96779.16;10493450;28;20222;-76
2022/11/01 13:49:09;;;;;;;8.15;2.30;;;;;;;15.97;87.42;96786.78;10502842;28;20222;-78
2022/11/01 13:54:12;;;;;;;6.97;2.67;;;;;;;16.09;86.79;96776.56;10497275;28;20282;-76
2022/11/01 13:59:14;;;;;;;9.15;2.30;;;;;;;16.10;87.12;96783.47;10508307;28;20207;-76
2022/11/01 14:04:17;;;;;;;10.55;2.30;;;;;;;15.99;87.59;96776.88;10513415;28;21262;-76
2022/11/01 14:09:27;;;;;;;5.03;2.20;;;;;;;15.77;88.46;96783.94;10514071;28;20572;-76
2022/11/01 14:14:30;;;;;;;4.95;2.08;;;;;;;15.95;89.16;96773.78;10513188;28;20186;-75
2022/11/01 14:19:30;;;;;;;9.20;2.63;;;;;;;15.77;89.25;96781.28;10514273;28;20258;-76
2022/11/01 14:24:31;;;;;;;4.28;2.40;;;;;;;15.80;90.98;96783.59;10513056;28;20210;-76
2022/11/01 14:29:34;;;;;;;7.28;2.55;;;;;;;15.79;90.63;96781.94;10517148;28;20223;-76
2022/11/01 14:34:35;;;;;;;3.10;2.22;;;;;;;15.44;92.63;96808.16;10515524;28;20190;-75
2022/11/01 14:39:43;;;;;;;5.28;2.47;;;;;;;15.61;92.81;96808.75;10521772;28;20206;-75
2022/11/01 14:44:46;;;;;;;5.25;2.45;;;;;;;15.59;90.96;96810.75;10523514;28;20558;-75
2022/11/01 14:49:47;;;;;;;11.35;2.70;;;;;;;15.47;89.57;96799.88;10560712;28;20560;-75
2022/11/01 14:54:55;;;;;;;4.50;2.25;;;;;;;15.51;88.29;96785.28;10559914;28;20222;-75
2022/11/01 14:59:57;;;;;;;4.55;2.17;;;;;;;15.45;88.04;96792.13;10560316;28;20189;-75
2022/11/01 15:04:59;;;;;;;4.15;2.78;;;;;;;15.14;88.60;96790.53;10566560;28;20556;-75
2022/11/01 15:10:00;;;;;;;4.07;2.25;;;;;;;14.99;89.47;96808.16;10533401;28;20245;-76
2022/11/01 15:15:01;;;;;;;5.13;2.42;;;;;;;14.86;91.61;96813.28;10534579;28;20194;-75
2022/11/01 15:20:12;;;;;;;7.68;3.30;;;;;;;14.85;92.08;96809.00;10517086;28;20206;-75
2022/11/01 15:25:20;;;;;;;6.70;4.45;;;;;;;14.78;93.11;96814.19;10534346;28;20203;-76
2022/11/01 15:30:26;;;;;;;10.43;7.65;;;;;;;14.48;94.08;96818.56;10516313;28;20226;-75
2022/11/01 15:35:27;;;;;;;5.90;3.28;;;;;;;14.17;94.92;96816.84;10533272;28;20197;-75
2022/11/01 15:40:33;;;;;;;7.22;2.70;;;;;;;14.02;95.08;96808.88;10508633;28;20187;-76
2022/11/01 15:45:36;;;;;;;5.95;3.65;;;;;;;14.05;94.49;96809.31;10510374;28;20560;-76
2022/11/01 15:50:40;;;;;;;9.85;3.00;;;;;;;13.91;95.71;96823.28;10494810;28;20336;-75
2022/11/01 15:55:44;;;;;;;7.97;6.97;;;;;;;13.66;97.30;96826.06;10478023;28;20674;-76
2022/11/01 16:00:48;;;;;;;5.80;3.10;;;;;;;13.38;100.00;96830.94;10473684;28;20187;-76
2022/11/01 16:05:53;;;;;;;4.25;2.78;;;;;;;13.22;100.00;96831.00;10490590;28;20656;-75
2022/11/01 16:10:53;;;;;;;4.57;2.88;;;;;;;13.36;100.00;96823.22;10493350;28;20195;-75
2022/11/01 16:16:09;;;;;;;9.27;3.17;;;;;;;13.01;100.00;96835.81;10489428;28;20214;-75
2022/11/01 16:21:21;;;;;;;6.82;3.17;;;;;;;12.81;100.00;96838.00;10491961;28;20190;-75
2022/11/01 16:26:22;;;;;;;5.95;2.70;;;;;;;12.80;100.00;96854.78;10506781;28;20246;-75
2022/11/01 16:31:25;;;;;;;6.15;2.65;;;;;;;12.76;100.00;96850.81;10504576;28;20195;-75
2022/11/01 16:36:41;;;;;;;6.47;3.22;;;;;;;12.15;100.00;96860.03;10505789;28;20226;-75
2022/11/01 16:41:42;;;;;;;9.68;3.13;;;;;;;12.03;100.00;96859.53;10514267;28;20194;-75
2022/11/01 16:46:43;;;;;;;7.55;3.30;;;;;;;11.77;100.00;96876.19;10531393;28;20230;-75
2022/11/01 16:51:43;;;;;;;45.10;17.45;;;;;;;11.68;100.00;96890.25;10527234;28;20238;-76
2022/11/01 16:56:44;;;;;;;193.27;98.38;;;;;;;11.51;100.00;96889.38;10530701;28;20179;-75
2022/11/01 17:01:45;;;;;;;29.90;15.73;;;;;;;11.54;100.00;96886.44;10513351;28;20198;-75
2022/11/01 17:06:46;;;;;;;18.73;14.02;;;;;;;11.67;100.00;96891.22;10531722;28;20214;-75
2022/11/01 17:11:49;;;;;;;13.15;7.43;;;;;;;11.88;100.00;96888.19;10558090;28;20197;-75
2022/11/01 17:16:50;;;;;;;9.15;5.18;;;;;;;12.02;100.00;96890.22;10574536;28;20230;-75
2022/11/01 17:21:51;;;;;;;9.90;5.50;;;;;;;12.11;100.00;96886.63;10574823;28;20194;-75
2022/11/01 17:26:54;;;;;;;11.18;5.40;;;;;;;12.21;100.00;96893.53;10556154;28;20225;-75
2022/11/01 17:31:54;;;;;;;7.63;5.13;;;;;;;12.37;100.00;96890.91;10555524;28;20419;-75
2022/11/01 17:36:56;;;;;;;5.78;3.45;;;;;;;12.33;100.00;96889.59;10535614;28;20206;-75
2022/11/01 17:41:56;;;;;;;10.07;4.57;;;;;;;12.14;100.00;96901.22;10518554;28;20190;-75
2022/11/01 17:46:58;;;;;;;11.10;4.57;;;;;;;12.29;100.00;96899.59;10521671;28;20202;-75
2022/11/01 17:51:59;;;;;;;6.63;4.18;;;;;;;12.15;100.00;96905.50;10507913;28;20291;-75
2022/11/01 17:57:00;;;;;;;15.95;5.22;;;;;;;12.07;100.00;96889.75;10496284;28;20274;-75
2022/11/01 18:02:00;;;;;;;10.07;4.30;;;;;;;12.07;100.00;96901.06;10490117;28;20190;-75
2022/11/01 18:07:02;;;;;;;6.43;3.40;;;;;;;11.97;100.00;96905.63;10489791;28;20787;-75
2022/11/01 18:12:27;;;;;;;11.98;4.10;;;;;;;12.14;100.00;96895.97;10489901;28;20603;-75
2022/11/01 18:17:40;;;;;;;10.82;4.28;;;;;;;12.17;100.00;96900.91;10490814;28;20190;-75
2022/11/01 18:22:49;;;;;;;13.02;6.65;;;;;;;12.22;100.00;96909.13;10490647;28;20218;-75
2022/11/01 18:27:49;;;;;;;11.82;6.22;;;;;;;12.07;100.00;96911.56;10470513;28;20754;-75
2022/11/01 18:32:58;;;;;;;6.88;4.18;;;;;;;11.99;100.00;96908.94;10488034;28;20180;-75
2022/11/01 18:38:11;;;;;;;9.57;3.15;;;;;;;12.25;100.00;96913.22;10469562;28;20733;-74
2022/11/01 18:43:11;;;;;;;6.28;2.80;;;;;;;12.23;100.00;96917.81;10487838;28;20294;-74
2022/11/01 18:48:19;;;;;;;7.07;2.85;;;;;;;12.17;100.00;96911.41;10493933;28;20227;-75
2022/11/01 18:53:19;;;;;;;6.88;3.00;;;;;;;12.11;100.00;96915.53;10476163;28;20235;-75
2022/11/01 18:58:28;;;;;;;6.50;2.40;;;;;;;12.23;100.00;96920.47;10495220;28;20192;-75
2022/11/01 19:03:28;;;;;;;5.28;3.10;;;;;;;12.22;100.00;96910.91;10489170;28;20187;-75
2022/11/01 19:08:28;;;;;;;6.78;2.80;;;;;;;11.97;100.00;96920.56;10494399;28;20578;-76
2022/11/01 19:13:33;;;;;;;10.10;3.23;;;;;;;11.81;100.00;96923.91;10493880;28;20191;-75
2022/11/01 19:18:33;;;;;;;6.72;3.10;;;;;;;11.78;100.00;96923.25;10494522;28;20184;-76
2022/11/01 19:23:43;;;;;;;7.03;3.30;;;;;;;11.56;100.00;96932.53;10484260;28;20297;-75
2022/11/01 19:28:44;;;;;;;7.00;3.07;;;;;;;11.64;100.00;96923.88;10514066;28;20215;-75
2022/11/01 19:33:45;;;;;;;6.40;2.60;;;;;;;11.50;100.00;96932.31;10513080;28;20213;-76
2022/11/01 19:38:46;;;;;;;4.07;2.77;;;;;;;11.50;100.00;96940.19;10494132;28;20242;-75
2022/11/01 19:43:47;;;;;;;4.13;2.80;;;;;;;11.51;100.00;96940.03;10513471;28;20211;-76
2022/11/01 19:48:47;;;;;;;5.72;2.85;;;;;;;11.37;100.00;96945.88;10512724;28;20206;-76
2022/11/01 19:53:52;;;;;;;5.40;3.10;;;;;;;11.47;100.00;96951.00;10511730;28;20227;-75
2022/11/01 19:58:54;;;;;;;5.73;2.80;;;;;;;11.68;100.00;96948.00;10492370;28;20217;-76
2022/11/01 20:04:02;;;;;;;6.07;2.47;;;;;;;11.73;100.00;96948.31;10491315;28;20196;-75
2022/11/01 20:09:17;;;;;;;4.93;2.20;;;;;;;11.80;100.00;96925.72;10473966;28;20230;-76
2022/11/01 20:14:18;;;;;;;4.77;2.13;;;;;;;11.84;100.00;96924.44;10491444;28;20862;-76
2022/11/01 20:19:19;;;;;;;5.77;2.10;;;;;;;11.73;100.00;96925.53;10491664;28;20528;-76
2022/11/01 20:24:19;;;;;;;2.17;1.80;;;;;;;11.67;100.00;96936.69;10490406;28;20187;-75
2022/11/01 20:29:20;;;;;;;4.87;2.13;;;;;;;11.41;100.00;96945.41;10492413;28;20301;-76
2022/11/01 20:34:20;;;;;;;3.77;1.90;;;;;;;11.49;100.00;96942.00;10473676;28;20183;-76
2022/11/01 20:39:21;;;;;;;10.20;3.53;;;;;;;11.31;100.00;96949.94;10492058;28;20230;-76
2022/11/01 20:44:21;;;;;;;8.60;5.20;;;;;;;11.20;100.00;96963.31;10491588;28;20285;-75
2022/11/01 20:49:22;;;;;;;5.33;3.27;;;;;;;11.11;100.00;96961.63;10473255;28;20257;-75
2022/11/01 20:54:22;;;;;;;4.70;2.53;;;;;;;11.07;100.00;96959.31;10490778;28;20238;-75
2022/11/01 20:59:22;;;;;;;5.47;2.10;;;;;;;10.86;100.00;96975.34;10491140;28;20188;-76
2022/11/01 21:04:24;;;;;;;5.17;2.50;;;;;;;10.50;100.00;96974.56;10489909;28;20199;-76
2022/11/01 21:09:42;;;;;;;9.03;2.60;;;;;;;10.38;100.00;96979.19;10486047;28;20211;-76
2022/11/01 21:14:43;;;;;;;5.60;2.30;;;;;;;9.92;100.00;96984.41;10491287;28;20191;-76
2022/11/01 21:19:48;;;;;;;4.63;1.97;;;;;;;9.88;100.00;96984.84;10491119;28;20187;-76
2022/11/01 21:24:49;;;;;;;4.93;2.10;;;;;;;9.46;100.00;96975.63;10491470;28;20654;-76
2022/11/01 21:29:50;;;;;;;2.87;2.00;;;;;;;9.76;100.00;96978.97;10473178;28;20215;-75
2022/11/01 21:34:51;;;;;;;4.27;2.37;;;;;;;9.26;100.00;96975.72;10472757;28;20191;-75
2022/11/01 21:40:01;;;;;;;4.10;2.00;;;;;;;9.14;100.00;96983.84;10490506;28;20211;-75
2022/11/01 21:45:24;;;;;;;2.97;1.93;;;;;;;8.91;100.00;96969.31;10490215;28;20790;-75
2022/11/01 21:50:24;;;;;;;5.33;2.40;;;;;;;9.06;100.00;96971.47;10490415;28;20219;-75
2022/11/01 21:55:24;;;;;;;5.17;2.00;;;;;;;9.04;100.00;96976.03;10490093;28;20682;-75
2022/11/01 22:00:25;;;;;;;5.87;2.50;;;;;;;8.94;100.00;96970.78;10490354;28;20599;-74
2022/11/01 22:05:25;;;;;;;4.67;1.83;;;;;;;8.75;100.00;96971.66;10488283;28;20187;-75
2022/11/01 22:10:26;;;;;;;6.17;2.07;;;;;;;8.56;100.00;96969.88;10490125;28;20226;-75
2022/11/01 22:15:26;;;;;;;7.13;2.30;;;;;;;8.37;100.00;96973.25;10489624;28;20722;-75
2022/11/01 22:20:26;;;;;;;5.30;2.00;;;;;;;8.41;100.00;96982.47;10492352;28;20187;-75
2022/11/01 22:25:27;;;;;;;3.77;2.10;;;;;;;8.20;100.00;96986.00;10497328;28;20187;-75
2022/11/01 22:30:27;;;;;;;9.70;2.40;;;;;;;8.17;100.00;96988.06;10497741;28;20328;-75
2022/11/01 22:35:27;;;;;;;4.77;2.23;;;;;;;7.97;100.00;96988.03;10508643;28;20274;-75
2022/11/01 22:40:29;;;;;;;7.43;2.07;;;;;;;7.82;100.00;96981.53;10497003;28;20211;-75
2022/11/01 22:45:40;;;;;;;5.23;2.20;;;;;;;7.94;100.00;96975.25;10496702;28;20524;-75
2022/11/01 22:50:40;;;;;;;7.17;2.50;;;;;;;7.94;100.00;96982.25;10496428;28;20583;-75
2022/11/01 22:55:45;;;;;;;7.27;2.50;;;;;;;8.19;100.00;96980.91;10496467;28;20199;-75
2022/11/01 23:00:45;;;;;;;5.20;2.23;;;;;;;8.51;100.00;96988.53;10496214;28;20288;-74
2022/11/01 23:05:52;;;;;;;4.23;2.07;;;;;;;8.48;100.00;96975.75;10495768;28;20175;-76
2022/11/01 23:10:53;;;;;;;7.07;2.40;;;;;;;8.40;100.00;96980.81;10495647;28;20215;-75
2022/11/01 23:15:56;;;;;;;8.63;2.50;;;;;;;8.39;100.00;96981.78;10489459;28;20694;-75
2022/11/01 23:20:59;;;;;;;3.97;2.10;;;;;;;8.67;100.00;96972.34;10478186;28;20183;-76
2022/11/01 23:26:03;;;;;;;5.77;2.60;;;;;;;8.89;100.00;96978.25;10477034;28;20648;-76
2022/11/01 23:31:03;;;;;;;4.60;1.67;;;;;;;8.88;100.00;96973.97;10494533;28;20191;-76
2022/11/01 23:36:07;;;;;;;3.37;1.60;;;;;;;8.61;100.00;96972.91;10476730;28;20199;-75